Time;durP1;ratioP1;P1;durP2;ratioP2;P2;SDS_P1;SDS_P2;PMS_P1;PMS_P2;Temp;Humidity;BMP_temperature;BMP_pressure;BME280_temperature;BME280_humidity;BME280_pressure;Samples;Min_cycle;Max_cycle;Signal;HPM_P1;HPM_P2
2021/10/22 00:01:41;;;;;;;5.85;1.70;;;;;;;9.99;70.31;99255.72;4977343;28;20053;-62
2021/10/22 00:04:10;;;;;;;2.80;1.25;;;;;;;9.91;70.66;99264.25;4976959;28;20047;-62
2021/10/22 00:06:43;;;;;;;4.30;1.77;;;;;;;9.77;70.56;99260.91;4973546;28;20130;-61
2021/10/22 00:09:13;;;;;;;5.50;1.83;;;;;;;9.62;70.66;99263.53;4977625;28;20050;-61
2021/10/22 00:11:44;;;;;;;6.00;1.60;;;;;;;9.47;70.96;99273.75;4991364;28;20503;-62
2021/10/22 00:14:17;;;;;;;5.38;1.67;;;;;;;9.32;71.29;99277.19;4977231;28;20038;-61
2021/10/22 00:16:46;;;;;;;4.50;1.88;;;;;;;9.30;71.72;99264.47;4972587;28;20126;-61
2021/10/22 00:19:16;;;;;;;4.25;1.95;;;;;;;9.15;71.96;99264.50;4976002;28;20050;-62
2021/10/22 00:21:46;;;;;;;;;;;;;;;9.22;72.66;99280.59;4971963;28;20047;-61
2021/10/22 00:24:19;;;;;;;5.43;2.05;;;;;;;9.16;72.57;99284.03;4958509;28;19922;-62
2021/10/22 00:26:50;;;;;;;5.50;1.70;;;;;;;9.14;72.08;99288.25;4966744;28;20399;-61
2021/10/22 00:29:19;;;;;;;3.22;1.48;;;;;;;8.99;72.33;99285.75;4972671;28;20055;-61
2021/10/22 00:31:48;;;;;;;4.97;1.85;;;;;;;8.89;71.82;99286.59;4972524;28;20552;-62
2021/10/22 00:34:17;;;;;;;4.20;1.58;;;;;;;8.71;71.84;99276.41;4977002;28;20050;-61
2021/10/22 00:37:17;;;;;;;3.30;1.40;;;;;;;8.66;72.33;99273.84;4976900;28;20047;-61
2021/10/22 00:40:24;;;;;;;4.05;1.60;;;;;;;8.75;72.33;99278.97;4957524;29;20126;-61
2021/10/22 00:42:55;;;;;;;3.13;1.85;;;;;;;8.79;71.93;99282.34;4957343;29;20134;-62
2021/10/22 00:45:24;;;;;;;4.25;1.60;;;;;;;8.81;72.48;99284.88;4957359;29;20050;-61
2021/10/22 00:48:02;;;;;;;4.63;1.60;;;;;;;8.82;71.89;99281.50;4957722;29;20497;-61
2021/10/22 00:50:32;;;;;;;4.45;1.67;;;;;;;8.81;71.84;99283.19;4969356;28;20150;-61
2021/10/22 00:53:01;;;;;;;3.97;1.38;;;;;;;8.74;72.40;99281.50;4976913;28;20046;-61
2021/10/22 00:55:34;;;;;;;4.80;1.60;;;;;;;8.70;72.28;99279.81;4976919;28;20051;-61
2021/10/22 00:58:06;;;;;;;3.00;1.67;;;;;;;8.67;72.05;99279.81;4980264;28;20034;-62
2021/10/22 01:00:35;;;;;;;3.45;1.42;;;;;;;8.61;72.27;99274.72;4987445;28;20042;-61
2021/10/22 01:03:05;;;;;;;4.78;1.80;;;;;;;8.54;71.24;99273.84;4996140;28;20397;-61
2021/10/22 01:05:35;;;;;;;4.63;1.52;;;;;;;8.40;71.38;99264.50;4995823;28;20047;-61
2021/10/22 01:08:05;;;;;;;;;;;;;;;8.45;72.31;99276.41;4996160;28;20046;-61
2021/10/22 01:10:38;;;;;;;3.40;1.50;;;;;;;8.45;72.30;99273.00;4995826;28;19957;-61
2021/10/22 01:13:08;;;;;;;3.90;1.30;;;;;;;8.48;71.86;99278.09;4977556;28;20053;-61
2021/10/22 01:15:41;;;;;;;4.50;1.85;;;;;;;8.29;72.63;99273.81;4973559;28;20219;-61
2021/10/22 01:18:10;;;;;;;5.00;1.63;;;;;;;8.21;72.94;99270.38;4969524;28;20400;-62
2021/10/22 01:20:41;;;;;;;4.97;1.60;;;;;;;8.11;72.82;99260.19;4976077;28;20071;-62
2021/10/22 01:23:11;;;;;;;4.82;1.80;;;;;;;8.07;72.83;99271.22;4971177;28;20461;-61
2021/10/22 01:25:44;;;;;;;3.55;1.50;;;;;;;8.19;72.55;99279.69;4974958;28;20046;-62
2021/10/22 01:28:14;;;;;;;3.50;1.63;;;;;;;8.13;72.86;99281.38;4970419;28;20385;-61
2021/10/22 01:30:43;;;;;;;5.95;1.40;;;;;;;7.98;72.72;99286.44;4974956;28;20113;-61
2021/10/22 01:33:17;;;;;;;6.30;1.85;;;;;;;7.95;72.97;99286.44;4974817;28;20050;-61
2021/10/22 01:35:50;;;;;;;4.60;1.70;;;;;;;7.88;72.61;99289.78;4974071;28;20047;-61
2021/10/22 01:38:25;;;;;;;3.60;1.45;;;;;;;7.83;73.17;99291.47;4971633;28;20122;-61
2021/10/22 01:40:59;;;;;;;5.18;1.45;;;;;;;7.87;74.08;99292.34;4970754;28;20555;-61
2021/10/22 01:43:30;;;;;;;4.38;1.30;;;;;;;7.88;73.78;99289.78;4969011;28;20109;-61
2021/10/22 01:46:00;;;;;;;3.22;1.60;;;;;;;7.88;74.12;99291.47;4958989;28;20047;-61
2021/10/22 01:48:32;;;;;;;4.72;1.55;;;;;;;7.84;73.61;99293.16;4970219;28;20050;-61
2021/10/22 01:51:03;;;;;;;5.18;1.85;;;;;;;7.69;73.89;99299.88;4968764;28;20437;-61
2021/10/22 01:53:33;;;;;;;5.20;1.88;;;;;;;7.64;73.98;99297.31;4964931;28;20047;-61
2021/10/22 01:56:02;;;;;;;4.05;1.65;;;;;;;7.54;73.89;99303.19;4973689;28;20062;-62
2021/10/22 01:58:32;;;;;;;3.72;2.05;;;;;;;7.64;74.04;99302.38;4966266;28;20066;-61
2021/10/22 02:01:04;;;;;;;4.22;1.50;;;;;;;7.70;73.70;99296.50;4973633;28;20058;-62
2021/10/22 02:03:36;;;;;;;6.60;1.70;;;;;;;7.73;73.47;99306.66;4959029;28;20054;-61
2021/10/22 02:06:07;;;;;;;4.55;1.67;;;;;;;7.57;73.23;99300.66;4968555;28;20050;-61
2021/10/22 02:08:37;;;;;;;4.40;1.73;;;;;;;7.63;73.32;99305.75;4962581;28;20050;-61
2021/10/22 02:11:09;;;;;;;4.72;1.75;;;;;;;7.43;73.54;99309.91;4956342;28;20508;-62
2021/10/22 02:13:39;;;;;;;4.38;1.90;;;;;;;7.33;73.00;99314.06;4974657;28;20058;-61
2021/10/22 02:16:08;;;;;;;;;;;;;;;7.22;73.41;99319.91;4974338;28;20126;-61
2021/10/22 02:18:38;;;;;;;5.90;2.30;;;;;;;7.12;74.07;99315.63;4972055;28;19937;-61
2021/10/22 02:21:09;;;;;;;6.72;2.17;;;;;;;7.17;74.38;99317.34;4974257;28;20145;-62
2021/10/22 02:23:38;;;;;;;5.10;1.90;;;;;;;7.10;74.36;99312.22;4974508;28;20156;-61
2021/10/22 02:26:07;;;;;;;6.93;2.20;;;;;;;7.18;74.40;99315.66;4973783;28;20137;-62
2021/10/22 02:28:37;;;;;;;7.53;2.20;;;;;;;7.21;74.64;99315.66;4957199;28;20039;-61
2021/10/22 02:31:06;;;;;;;4.35;1.75;;;;;;;7.29;75.05;99322.47;4973356;28;20467;-61
2021/10/22 02:33:36;;;;;;;4.68;1.90;;;;;;;7.34;74.61;99309.84;4973334;28;20043;-61
2021/10/22 02:36:05;;;;;;;5.20;2.13;;;;;;;7.36;74.76;99314.09;4958015;28;20130;-61
2021/10/22 02:38:36;;;;;;;;;;;;;;;7.35;74.65;99316.59;4970591;28;20043;-62
2021/10/22 02:41:09;;;;;;;4.82;2.20;;;;;;;7.41;74.61;99314.13;4973721;28;19922;-61
2021/10/22 02:43:42;;;;;;;4.60;2.03;;;;;;;7.39;75.10;99323.38;4956303;28;20079;-61
2021/10/22 02:46:11;;;;;;;5.72;2.15;;;;;;;7.44;74.82;99321.72;4973790;28;20101;-61
2021/10/22 02:48:41;;;;;;;3.85;1.75;;;;;;;7.50;75.21;99331.94;4971716;28;20046;-61
2021/10/22 02:51:10;;;;;;;7.20;2.33;;;;;;;7.58;75.25;99329.44;4960122;28;20055;-61
2021/10/22 02:53:41;;;;;;;6.18;2.10;;;;;;;7.46;75.21;99335.31;4957055;28;20063;-62
2021/10/22 02:56:10;;;;;;;4.95;2.00;;;;;;;7.40;75.17;99345.41;4972887;28;20571;-63
2021/10/22 02:58:39;;;;;;;4.97;1.88;;;;;;;7.32;76.07;99347.03;4966038;28;20521;-61
2021/10/22 03:01:09;;;;;;;4.93;1.85;;;;;;;7.38;75.85;99347.09;4966695;28;20069;-61
2021/10/22 03:03:38;;;;;;;5.38;2.00;;;;;;;7.61;76.61;99345.53;4955356;29;20050;-61
2021/10/22 03:06:11;;;;;;;4.03;2.08;;;;;;;7.84;76.55;99348.22;4963636;28;20046;-61
2021/10/22 03:08:51;;;;;;;8.52;2.58;;;;;;;8.08;76.25;99369.50;4975162;28;20153;-61
2021/10/22 03:11:20;;;;;;;7.85;2.03;;;;;;;8.27;76.39;99370.44;4969818;28;20054;-63
2021/10/22 03:13:49;;;;;;;8.50;2.25;;;;;;;8.31;76.75;99376.38;4962008;28;20043;-61
2021/10/22 03:16:22;;;;;;;5.20;1.95;;;;;;;8.37;76.69;99371.31;4970571;28;20136;-64
2021/10/22 03:18:51;;;;;;;3.78;2.05;;;;;;;8.46;76.40;99376.41;4972097;28;20057;-61
2021/10/22 03:21:22;;;;;;;3.35;1.80;;;;;;;8.50;76.57;99373.03;4969600;28;20101;-61
2021/10/22 03:23:56;;;;;;;4.05;2.13;;;;;;;8.49;76.61;99379.84;4975154;28;20070;-61
2021/10/22 03:26:26;;;;;;;6.45;2.05;;;;;;;8.61;76.67;99386.66;4969331;28;20399;-61
2021/10/22 03:28:55;;;;;;;;;;;;;;;8.62;77.31;99383.22;4970372;28;20042;-61
2021/10/22 03:31:28;;;;;;;5.78;1.88;;;;;;;8.74;77.76;99394.28;4972101;28;19941;-62
2021/10/22 03:34:05;;;;;;;4.15;2.00;;;;;;;8.94;77.02;99396.88;4968986;28;20053;-62
2021/10/22 03:36:37;;;;;;;3.35;1.88;;;;;;;9.02;76.67;99410.44;4955378;28;20126;-62
2021/10/22 03:39:11;;;;;;;5.15;2.20;;;;;;;9.18;76.84;99402.00;4955270;29;20451;-61
2021/10/22 03:41:41;;;;;;;5.40;1.75;;;;;;;9.23;76.62;99405.38;4961593;28;20142;-62
2021/10/22 03:44:13;;;;;;;3.63;1.80;;;;;;;9.39;76.30;99413.84;4972169;28;20094;-61
2021/10/22 03:46:45;;;;;;;6.60;2.22;;;;;;;9.48;75.95;99413.03;4964315;28;20047;-61
2021/10/22 03:49:15;;;;;;;5.05;1.75;;;;;;;9.61;75.22;99414.69;4955226;28;20448;-61
2021/10/22 03:51:47;;;;;;;4.90;1.77;;;;;;;9.61;75.56;99412.13;4962644;28;20129;-61
2021/10/22 03:54:21;;;;;;;3.17;1.63;;;;;;;9.61;75.62;99417.22;4976162;28;20042;-61
2021/10/22 03:56:50;;;;;;;4.75;1.80;;;;;;;9.65;75.78;99414.69;4969004;28;20074;-61
2021/10/22 03:59:22;;;;;;;4.10;1.90;;;;;;;9.73;75.56;99419.78;4963947;28;20046;-61
2021/10/22 04:01:54;;;;;;;3.70;1.75;;;;;;;9.79;75.78;99422.31;4972556;28;20463;-61
2021/10/22 04:04:29;;;;;;;4.20;2.08;;;;;;;9.80;75.87;99424.00;4975838;28;20070;-61
2021/10/22 04:07:00;;;;;;;5.45;2.00;;;;;;;9.78;75.99;99418.91;4947634;29;20055;-61
2021/10/22 04:09:32;;;;;;;9.18;2.10;;;;;;;9.78;75.71;99425.72;4974048;28;20493;-62
2021/10/22 04:12:02;;;;;;;4.22;1.77;;;;;;;9.68;75.80;99426.56;4967215;28;20051;-61
2021/10/22 04:14:31;;;;;;;4.13;1.90;;;;;;;9.71;75.99;99429.13;4968345;28;20047;-61
2021/10/22 04:17:00;;;;;;;6.72;2.70;;;;;;;9.76;75.97;99414.66;4972484;28;20093;-61
2021/10/22 04:19:33;;;;;;;6.47;2.20;;;;;;;9.83;75.43;99414.66;4976176;28;20039;-61
2021/10/22 04:22:02;;;;;;;7.07;2.65;;;;;;;9.85;75.46;99425.69;4960958;28;20133;-62
2021/10/22 04:24:36;;;;;;;6.57;2.57;;;;;;;9.90;74.59;99420.59;4975360;28;21762;-62
2021/10/22 04:27:05;;;;;;;6.07;2.22;;;;;;;9.95;75.12;99424.84;4972679;28;20137;-62
2021/10/22 04:29:34;;;;;;;3.47;1.40;;;;;;;9.90;75.16;99420.59;4977292;28;20555;-61
2021/10/22 04:32:04;;;;;;;7.73;2.23;;;;;;;9.92;74.30;99423.97;4976595;28;20134;-62
2021/10/22 04:34:34;;;;;;;8.15;2.72;;;;;;;9.96;74.13;99430.75;4984553;28;20316;-62
2021/10/22 04:37:22;;;;;;;6.35;2.15;;;;;;;9.87;73.75;99435.88;4976975;28;20049;-61
2021/10/22 04:42:40;;;;;;;7.00;2.40;;;;;;;9.68;73.66;99429.97;4975972;28;20133;-61
2021/10/22 04:45:13;;;;;;;5.20;1.88;;;;;;;9.64;73.62;99447.81;4961943;28;20572;-61
2021/10/22 04:47:42;;;;;;;4.30;2.25;;;;;;;9.64;74.30;99448.66;4973794;28;20137;-61
2021/10/22 04:50:15;;;;;;;7.68;2.63;;;;;;;9.49;74.04;99450.34;4961153;28;20046;-61
2021/10/22 04:52:53;;;;;;;4.50;2.20;;;;;;;9.38;73.73;99445.28;4957627;28;20078;-61
2021/10/22 04:55:26;;;;;;;4.20;1.80;;;;;;;9.36;74.29;99454.59;4968883;28;20081;-62
2021/10/22 04:57:55;;;;;;;4.75;1.95;;;;;;;9.20;73.65;99456.28;4974421;28;20097;-61
2021/10/22 05:00:25;;;;;;;3.72;1.65;;;;;;;9.16;74.29;99448.66;4958610;28;20051;-63
2021/10/22 05:02:54;;;;;;;4.95;2.13;;;;;;;9.10;74.25;99457.13;4974131;28;20035;-62
2021/10/22 05:05:24;;;;;;;5.75;1.92;;;;;;;8.97;74.71;99455.44;4968587;28;20042;-61
2021/10/22 05:07:53;;;;;;;5.18;1.92;;;;;;;8.74;75.43;99449.41;4958828;28;20071;-61
2021/10/22 05:10:24;;;;;;;5.07;1.80;;;;;;;8.80;75.40;99444.34;4969909;28;20045;-61
2021/10/22 05:12:54;;;;;;;4.88;2.00;;;;;;;8.77;75.67;99449.44;4974564;28;20127;-61
2021/10/22 05:15:26;;;;;;;4.88;1.90;;;;;;;8.56;75.68;99450.22;4968216;28;20097;-62
2021/10/22 05:17:58;;;;;;;3.65;1.80;;;;;;;8.49;75.51;99447.66;4972305;28;20054;-61
2021/10/22 05:20:28;;;;;;;4.22;2.10;;;;;;;8.45;75.51;99438.28;4973084;28;20574;-61
2021/10/22 05:22:57;;;;;;;3.80;1.80;;;;;;;8.53;76.12;99439.19;4956718;29;20043;-61
2021/10/22 05:25:28;;;;;;;5.50;2.35;;;;;;;8.69;74.96;99451.94;4957604;28;20508;-62
2021/10/22 05:28:00;;;;;;;6.25;1.92;;;;;;;8.65;75.52;99451.94;4972586;28;20055;-62
2021/10/22 05:30:30;;;;;;;7.80;2.58;;;;;;;8.52;75.80;99462.91;4972937;28;20105;-62
2021/10/22 05:33:07;;;;;;;5.07;2.15;;;;;;;8.34;75.34;99467.91;4957217;29;20047;-61
2021/10/22 05:35:36;;;;;;;7.32;3.00;;;;;;;8.34;76.25;99478.09;4962177;28;20047;-62
2021/10/22 05:38:08;;;;;;;7.82;3.17;;;;;;;8.47;75.33;99482.41;4975072;28;20063;-61
2021/10/22 05:40:42;;;;;;;4.60;2.65;;;;;;;8.68;76.10;99490.13;4974729;28;20066;-61
2021/10/22 05:43:12;;;;;;;5.95;2.78;;;;;;;8.77;75.46;99496.09;4956490;28;20413;-61
2021/10/22 05:45:41;;;;;;;9.68;2.78;;;;;;;8.85;75.63;99493.56;4974831;28;20047;-61
2021/10/22 05:48:14;;;;;;;6.88;3.22;;;;;;;8.97;75.72;99497.84;4973317;28;20511;-61
2021/10/22 05:50:43;;;;;;;6.10;2.72;;;;;;;8.97;75.00;99506.31;4970223;28;20540;-61
2021/10/22 05:53:13;;;;;;;8.15;3.10;;;;;;;8.97;74.59;99518.19;4974413;28;20047;-62
2021/10/22 05:55:43;;;;;;;6.47;2.20;;;;;;;8.99;75.27;99516.50;4969510;28;20457;-62
2021/10/22 05:58:13;;;;;;;7.15;3.40;;;;;;;9.09;74.99;99526.72;4971988;28;20125;-61
2021/10/22 06:00:43;;;;;;;5.95;2.42;;;;;;;9.02;74.54;99524.16;4968983;28;20532;-61
2021/10/22 06:03:13;;;;;;;6.00;3.00;;;;;;;9.18;75.17;99524.19;4963627;28;20492;-61
2021/10/22 06:05:43;;;;;;;7.22;3.05;;;;;;;9.29;74.90;99527.59;4967245;28;20035;-61
2021/10/22 06:08:12;;;;;;;11.07;3.15;;;;;;;9.43;75.03;99528.47;4956038;28;20055;-61
2021/10/22 06:10:43;;;;;;;4.55;2.05;;;;;;;9.53;75.19;99531.88;4970819;28;20121;-61
2021/10/22 06:13:14;;;;;;;5.93;2.63;;;;;;;9.60;74.25;99536.13;4975400;28;20251;-61
2021/10/22 06:15:44;;;;;;;5.47;2.28;;;;;;;9.55;75.28;99539.53;4975199;28;20061;-61
2021/10/22 06:18:15;;;;;;;7.15;2.35;;;;;;;9.48;74.93;99540.38;4975424;28;20093;-61
2021/10/22 06:20:47;;;;;;;4.75;2.40;;;;;;;9.60;75.55;99542.94;4975437;28;20042;-61
2021/10/22 06:25:57;;;;;;;6.50;2.70;;;;;;;9.92;75.04;99556.53;4974264;28;20058;-61
2021/10/22 06:28:26;;;;;;;7.35;2.53;;;;;;;10.08;74.74;99558.22;4972121;28;20133;-61
2021/10/22 06:30:56;;;;;;;;;;;;;;;10.34;74.91;99566.72;4968479;28;20082;-61
2021/10/22 06:33:25;;;;;;;5.43;2.20;;;;;;;10.39;74.34;99553.97;4970371;28;19932;-61
2021/10/22 06:35:55;;;;;;;4.20;1.95;;;;;;;10.56;74.60;99547.97;4970693;28;20423;-61
2021/10/22 06:38:24;;;;;;;9.13;2.47;;;;;;;10.71;73.53;99537.72;4970649;28;20051;-61
2021/10/22 06:40:54;;;;;;;3.85;2.10;;;;;;;11.01;73.79;99567.38;4974585;28;20053;-61
2021/10/22 06:43:26;;;;;;;5.32;1.98;;;;;;;10.76;73.04;99482.38;4974560;28;20114;-61
2021/10/22 06:45:58;;;;;;;6.07;1.75;;;;;;;11.37;72.52;99556.94;4974233;28;20049;-61
2021/10/22 06:48:27;;;;;;;5.07;1.95;;;;;;;11.49;72.13;99563.72;4975617;28;20053;-61
2021/10/22 06:50:58;;;;;;;5.90;2.17;;;;;;;11.49;71.57;99560.31;4980516;28;20492;-61
2021/10/22 06:53:31;;;;;;;3.85;1.90;;;;;;;11.57;71.11;99572.16;4973450;28;20493;-61
2021/10/22 06:56:00;;;;;;;3.83;1.92;;;;;;;11.50;71.05;99567.94;4968554;28;20069;-61
2021/10/22 06:58:31;;;;;;;;;;;;;;;11.63;70.91;99569.59;4975265;28;20054;-61
2021/10/22 07:01:04;;;;;;;3.97;1.90;;;;;;;11.67;71.00;99566.13;4975249;28;19922;-61
2021/10/22 07:03:40;;;;;;;5.38;1.60;;;;;;;11.71;70.87;99572.13;4974787;28;20500;-61
2021/10/22 07:08:48;;;;;;;7.10;2.20;;;;;;;11.93;70.02;99589.84;4955326;29;20481;-61
2021/10/22 07:11:19;;;;;;;7.32;2.30;;;;;;;11.94;70.01;99590.69;4964238;28;20043;-61
2021/10/22 07:13:52;;;;;;;3.42;1.50;;;;;;;12.08;69.79;99589.72;4973698;28;20047;-62
2021/10/22 07:16:23;;;;;;;4.13;1.55;;;;;;;12.13;69.41;99586.28;4973312;28;20059;-61
2021/10/22 07:18:53;;;;;;;4.43;1.98;;;;;;;12.18;69.06;99589.63;4959971;28;20065;-62
2021/10/22 07:21:27;;;;;;;4.90;1.40;;;;;;;12.31;68.60;99596.34;4959558;28;20518;-61
2021/10/22 07:24:01;;;;;;;4.20;1.52;;;;;;;12.40;68.15;99596.25;4955102;28;20073;-62
2021/10/22 07:26:31;;;;;;;3.22;1.70;;;;;;;12.54;67.82;99600.38;4965182;28;20142;-61
2021/10/22 07:29:01;;;;;;;4.63;2.00;;;;;;;12.49;67.72;99601.28;4972787;28;20201;-61
2021/10/22 07:31:30;;;;;;;7.40;2.05;;;;;;;12.49;67.72;99603.84;4966730;28;20042;-61
2021/10/22 07:34:00;;;;;;;3.80;1.75;;;;;;;12.53;67.58;99605.50;4971711;28;20381;-62
2021/10/22 07:36:29;;;;;;;7.10;2.47;;;;;;;12.52;67.48;99596.16;4970976;28;20051;-62
2021/10/22 07:39:08;;;;;;;4.32;1.95;;;;;;;12.52;67.77;99591.03;4967433;28;20051;-61
2021/10/22 07:41:58;;;;;;;3.83;2.10;;;;;;;12.71;67.72;99603.63;4973017;28;20043;-62
2021/10/22 07:44:50;;;;;;;3.72;1.77;;;;;;;12.88;67.38;99606.00;4972796;28;20047;-61
2021/10/22 07:47:21;;;;;;;3.95;1.50;;;;;;;12.98;66.84;99612.69;4973199;28;20081;-61
2021/10/22 07:49:52;;;;;;;3.92;1.50;;;;;;;13.10;66.46;99610.03;4970131;28;20066;-62
2021/10/22 07:52:23;;;;;;;4.88;1.60;;;;;;;13.01;66.02;99587.03;4959141;28;20054;-62
2021/10/22 07:54:53;;;;;;;3.55;1.85;;;;;;;12.94;65.98;99575.19;4963353;28;20047;-61
2021/10/22 07:57:24;;;;;;;3.10;1.50;;;;;;;13.23;65.29;99613.28;4976798;28;20035;-62
2021/10/22 07:59:56;;;;;;;2.28;1.10;;;;;;;13.29;64.69;99603.78;4973510;28;20451;-64
2021/10/22 08:02:25;;;;;;;2.40;1.10;;;;;;;13.30;64.53;99610.63;4975926;28;20213;-61
2021/10/22 08:04:55;;;;;;;3.33;1.40;;;;;;;13.47;63.91;99599.31;4972650;28;20046;-62
2021/10/22 08:07:29;;;;;;;8.07;2.22;;;;;;;13.49;63.29;99600.97;4972537;28;20071;-61
2021/10/22 08:10:00;;;;;;;4.13;1.15;;;;;;;13.50;62.72;99601.84;4972691;28;20043;-62
2021/10/22 08:12:30;;;;;;;3.33;1.42;;;;;;;13.60;62.88;99595.72;4966999;28;20038;-61
2021/10/22 08:15:01;;;;;;;4.78;1.77;;;;;;;13.72;62.71;99608.34;4971897;28;20082;-61
2021/10/22 08:17:31;;;;;;;6.55;1.67;;;;;;;13.86;62.40;99614.97;4974405;28;20050;-61
2021/10/22 08:20:04;;;;;;;4.05;1.33;;;;;;;13.92;61.86;99614.88;4976132;28;20126;-62
2021/10/22 08:22:33;;;;;;;3.75;1.40;;;;;;;13.96;61.75;99623.38;4971350;28;20062;-61
2021/10/22 08:25:05;;;;;;;3.17;1.10;;;;;;;14.16;61.25;99617.94;4977271;28;20051;-61
2021/10/22 08:27:37;;;;;;;4.50;1.40;;;;;;;14.20;60.96;99623.00;4977294;28;20046;-61
2021/10/22 08:30:11;;;;;;;1.27;0.90;;;;;;;14.27;60.54;99619.47;4977548;28;20093;-61
2021/10/22 08:32:46;;;;;;;6.95;1.08;;;;;;;14.23;60.08;99622.94;4974811;28;20053;-62
2021/10/22 08:35:16;;;;;;;4.55;1.40;;;;;;;14.29;60.23;99612.56;4975432;28;20453;-61
2021/10/22 08:37:46;;;;;;;;;;;;;;;14.40;60.02;99610.69;4977164;28;20070;-61
2021/10/22 08:40:16;;;;;;;5.45;1.70;;;;;;;14.44;59.92;99612.34;4972329;28;19922;-61
2021/10/22 08:42:48;;;;;;;1.60;1.02;;;;;;;14.62;60.05;99612.00;4969548;28;20059;-61
2021/10/22 08:45:20;;;;;;;3.45;1.33;;;;;;;14.76;59.95;99612.59;4958369;28;20404;-62
2021/10/22 08:47:49;;;;;;;4.13;1.40;;;;;;;14.89;58.78;99602.09;4975398;28;20034;-61
2021/10/22 08:50:21;;;;;;;3.83;1.13;;;;;;;14.94;58.56;99595.13;4977122;28;20130;-61
2021/10/22 08:52:52;;;;;;;5.25;1.88;;;;;;;14.93;57.88;99602.00;4976749;28;20053;-61
2021/10/22 08:55:22;;;;;;;3.22;1.20;;;;;;;15.01;57.43;99619.84;4969594;28;20051;-62
2021/10/22 08:57:51;;;;;;;3.47;1.08;;;;;;;15.14;57.05;99621.31;4966894;28;20428;-61
2021/10/22 09:00:23;;;;;;;;;;;;;;;15.17;57.14;99632.38;4984740;28;20038;-61
2021/10/22 09:02:53;;;;;;;1.90;0.90;;;;;;;15.12;57.23;99623.03;4979729;28;20351;-61
2021/10/22 09:05:24;;;;;;;3.83;1.15;;;;;;;15.13;57.19;99617.03;4969954;28;20110;-62
2021/10/22 09:07:55;;;;;;;2.67;1.08;;;;;;;15.11;56.54;99621.38;4976444;28;20055;-61
2021/10/22 09:10:26;;;;;;;2.47;1.10;;;;;;;15.13;56.90;99619.59;4970180;28;20047;-62
2021/10/22 09:12:57;;;;;;;3.03;1.20;;;;;;;15.22;56.34;99615.13;4956133;28;20130;-62
2021/10/22 09:15:31;;;;;;;2.22;0.98;;;;;;;15.16;56.11;99615.25;4975101;28;20051;-61
2021/10/22 09:18:07;;;;;;;2.10;0.90;;;;;;;15.19;56.62;99622.88;4971913;28;20053;-63
2021/10/22 09:20:49;;;;;;;4.07;1.42;;;;;;;15.27;56.44;99627.88;4974418;28;20571;-61
2021/10/22 09:23:25;;;;;;;1.65;0.80;;;;;;;15.37;55.95;99630.25;4970674;28;20066;-62
2021/10/22 09:26:15;;;;;;;2.78;1.33;;;;;;;15.46;55.79;99634.38;4963474;28;20043;-61
2021/10/22 09:28:45;;;;;;;4.32;1.05;;;;;;;15.53;55.71;99625.63;4974549;28;20038;-61
2021/10/22 09:31:17;;;;;;;2.72;1.02;;;;;;;15.59;55.73;99634.97;4975654;28;20047;-61
2021/10/22 09:33:55;;;;;;;2.10;1.00;;;;;;;15.72;55.26;99647.50;4974783;28;20039;-62
2021/10/22 09:36:36;;;;;;;5.30;1.05;;;;;;;15.75;55.35;99647.44;4970406;28;20067;-61
2021/10/22 09:39:08;;;;;;;1.35;0.95;;;;;;;15.90;55.04;99652.25;4975632;28;20045;-61
2021/10/22 09:41:38;;;;;;;4.85;1.20;;;;;;;16.03;54.54;99652.81;4967676;28;20043;-61
2021/10/22 09:44:18;;;;;;;4.82;1.10;;;;;;;16.17;53.92;99649.94;4962619;28;20214;-61
2021/10/22 09:46:49;;;;;;;1.80;0.90;;;;;;;16.23;53.68;99645.47;4966155;28;20042;-61
2021/10/22 09:49:29;;;;;;;3.10;1.10;;;;;;;16.28;53.63;99647.94;4974867;28;20069;-61
2021/10/22 09:52:00;;;;;;;8.43;1.30;;;;;;;16.28;53.45;99640.19;4975671;28;20051;-61
2021/10/22 09:54:31;;;;;;;1.60;1.08;;;;;;;16.32;53.53;99644.38;4975379;28;20277;-61
2021/10/22 09:57:07;;;;;;;1.23;0.60;;;;;;;16.26;53.74;99644.56;4975476;28;20074;-61
2021/10/22 09:59:37;;;;;;;3.88;1.38;;;;;;;16.07;54.15;99639.84;4971905;28;20075;-62
2021/10/22 10:02:11;;;;;;;2.40;1.00;;;;;;;15.94;54.12;99635.84;4970893;28;20094;-61
2021/10/22 10:04:41;;;;;;;3.92;1.20;;;;;;;15.96;54.05;99634.09;4965893;28;20062;-61
2021/10/22 10:07:11;;;;;;;4.10;1.20;;;;;;;15.85;54.23;99636.06;4975533;28;20070;-61
2021/10/22 10:09:40;;;;;;;3.90;1.00;;;;;;;15.69;54.62;99639.03;4975205;28;20063;-61
2021/10/22 10:12:10;;;;;;;1.85;0.80;;;;;;;15.67;54.87;99648.50;4975262;28;20050;-62
2021/10/22 10:14:39;;;;;;;3.50;1.27;;;;;;;15.60;54.28;99637.47;4975080;28;20054;-61
2021/10/22 10:17:10;;;;;;;2.45;0.98;;;;;;;15.57;54.71;99647.00;4975164;28;20050;-61
2021/10/22 10:19:44;;;;;;;2.78;1.10;;;;;;;15.51;54.81;99655.69;4975021;28;20086;-61
2021/10/22 10:22:16;;;;;;;3.25;1.00;;;;;;;15.38;54.75;99651.63;4962524;28;20070;-62
2021/10/22 10:24:49;;;;;;;2.55;1.00;;;;;;;15.35;54.66;99652.56;4973296;28;20405;-61
2021/10/22 10:27:21;;;;;;;1.83;0.88;;;;;;;15.37;54.85;99655.09;4974107;28;20082;-64
2021/10/22 10:29:53;;;;;;;3.72;1.20;;;;;;;15.41;54.98;99654.16;4976349;28;20043;-61
2021/10/22 10:32:25;;;;;;;6.07;1.35;;;;;;;15.36;54.87;99643.13;4973258;28;20047;-61
2021/10/22 10:34:56;;;;;;;1.60;1.00;;;;;;;15.43;54.82;99654.97;4981615;28;20078;-61
2021/10/22 10:37:34;;;;;;;4.03;1.20;;;;;;;15.43;55.00;99644.69;4973112;28;20055;-61
2021/10/22 10:40:12;;;;;;;5.22;0.95;;;;;;;15.48;54.69;99648.03;4969283;28;20120;-61
2021/10/22 10:42:48;;;;;;;1.10;0.70;;;;;;;15.47;54.85;99651.50;4972966;28;20051;-62
2021/10/22 10:45:41;;;;;;;1.38;0.70;;;;;;;15.48;54.88;99637.75;4974341;28;20094;-61
2021/10/22 10:48:18;;;;;;;3.95;1.10;;;;;;;15.44;55.19;99628.38;4972378;28;20035;-62
2021/10/22 10:50:55;;;;;;;1.63;0.90;;;;;;;15.35;54.93;99632.00;4973593;28;20074;-61
2021/10/22 10:53:35;;;;;;;3.72;1.25;;;;;;;15.38;55.19;99621.63;4972624;28;20043;-62
2021/10/22 10:56:07;;;;;;;1.85;1.10;;;;;;;15.37;54.89;99621.66;4968022;28;20070;-61
2021/10/22 10:58:46;;;;;;;2.47;0.93;;;;;;;15.41;54.91;99625.88;4974835;28;20130;-62
2021/10/22 11:01:24;;;;;;;1.95;1.08;;;;;;;15.49;55.03;99634.31;4966242;28;20090;-62
2021/10/22 11:03:56;;;;;;;3.38;1.50;;;;;;;15.25;54.83;99609.06;4976529;28;20047;-62
2021/10/22 11:06:39;;;;;;;3.35;1.20;;;;;;;15.23;55.30;99634.81;4975488;28;20055;-62
2021/10/22 11:09:09;;;;;;;1.77;1.05;;;;;;;15.10;55.27;99640.22;4973274;28;20054;-62
2021/10/22 11:11:40;;;;;;;1.23;0.90;;;;;;;15.03;55.61;99648.94;4982271;28;20094;-62
2021/10/22 11:14:23;;;;;;;2.15;1.10;;;;;;;14.96;56.07;99637.06;4967617;28;20090;-62
2021/10/22 11:16:58;;;;;;;1.77;1.00;;;;;;;14.89;55.87;99640.63;4969405;28;20039;-61
2021/10/22 11:19:35;;;;;;;2.75;1.02;;;;;;;14.92;55.73;99638.03;4967554;28;20043;-61
2021/10/22 11:22:12;;;;;;;2.58;1.00;;;;;;;14.95;55.71;99633.66;4977917;28;20054;-62
2021/10/22 11:24:42;;;;;;;3.72;1.30;;;;;;;14.93;55.67;99626.84;4971357;28;20045;-62
2021/10/22 11:27:14;;;;;;;1.83;0.82;;;;;;;14.94;55.74;99625.97;4977650;28;20062;-61
2021/10/22 11:29:46;;;;;;;4.22;1.15;;;;;;;14.96;55.78;99626.78;4976596;28;20058;-62
2021/10/22 11:32:19;;;;;;;1.33;0.80;;;;;;;14.95;56.26;99635.41;4978356;28;20067;-62
2021/10/22 11:34:58;;;;;;;4.25;1.30;;;;;;;14.88;56.17;99633.78;4973623;28;20436;-62
2021/10/22 11:37:30;;;;;;;3.70;1.10;;;;;;;14.72;56.19;99613.53;4970877;28;20126;-62
2021/10/22 11:40:04;;;;;;;3.13;1.10;;;;;;;14.70;56.10;99630.72;4955508;28;20078;-62
2021/10/22 11:42:34;;;;;;;2.75;1.00;;;;;;;14.59;56.31;99627.47;4975793;28;20097;-61
2021/10/22 11:45:11;;;;;;;2.45;1.00;;;;;;;14.69;56.39;99641.84;4972735;28;20055;-61
2021/10/22 11:47:43;;;;;;;3.00;1.10;;;;;;;14.67;56.25;99635.91;4957141;28;20049;-62
2021/10/22 11:50:21;;;;;;;2.60;0.80;;;;;;;14.60;56.53;99634.31;4978016;28;20437;-61
2021/10/22 11:52:59;;;;;;;2.83;0.80;;;;;;;14.56;57.72;99630.13;4972897;28;20097;-62
2021/10/22 11:55:30;;;;;;;4.40;1.10;;;;;;;14.57;58.96;99621.53;4977698;28;20053;-61
2021/10/22 11:58:06;;;;;;;2.47;1.25;;;;;;;14.53;58.96;99632.72;4983398;28;20507;-61
2021/10/22 12:00:36;;;;;;;1.92;1.00;;;;;;;14.58;60.27;99625.78;4981801;28;20061;-61
2021/10/22 12:03:06;;;;;;;5.57;2.28;;;;;;;14.57;60.44;99628.38;4977526;28;20062;-61
2021/10/22 12:05:41;;;;;;;3.15;1.25;;;;;;;14.59;60.65;99632.59;4977724;28;20133;-62
2021/10/22 12:08:18;;;;;;;4.20;1.60;;;;;;;14.41;61.06;99588.44;4976385;28;20098;-61
2021/10/22 12:10:51;;;;;;;2.55;1.10;;;;;;;14.59;60.52;99617.19;4951636;28;20086;-61